createdAt,value
2023-04-15T00:01:48.532Z,99153.06
2023-04-15T00:04:51.274Z,99164.72
2023-04-15T00:07:53.954Z,99144.63
2023-04-15T00:10:56.653Z,99148.09
2023-04-15T00:13:59.476Z,99154.59
2023-04-15T00:17:02.087Z,99147.31
2023-04-15T00:20:06.514Z,99153.03
2023-04-15T00:23:09.540Z,99168.38
2023-04-15T00:26:12.870Z,99166.94
2023-04-15T00:29:16.594Z,99163.28
2023-04-15T00:32:19.222Z,99169.56
2023-04-15T00:35:21.929Z,99165.31
2023-04-15T00:38:26.392Z,99164.53
2023-04-15T00:41:29.941Z,99158.06
2023-04-15T00:44:33.696Z,99151.22
2023-04-15T00:47:37.917Z,99160.47
2023-04-15T00:50:40.578Z,99161.69
2023-04-15T00:53:43.845Z,99166.16
2023-04-15T00:56:46.835Z,99171.63
2023-04-15T00:59:49.428Z,99179.91
2023-04-15T01:02:52.163Z,99181.53
2023-04-15T01:05:58.500Z,99163.94
2023-04-15T01:09:01.829Z,99167.69
2023-04-15T01:12:05.922Z,99156.31
2023-04-15T01:15:11.147Z,99165.16
2023-04-15T01:18:14.742Z,99169.22
2023-04-15T01:21:17.300Z,99182.75
2023-04-15T01:24:19.894Z,99189.38
2023-04-15T01:27:22.884Z,99175.78
2023-04-15T01:30:27.053Z,99200.44
2023-04-15T01:33:29.938Z,99173.59
2023-04-15T01:36:32.740Z,99169.72
2023-04-15T01:39:35.587Z,99186.47
2023-04-15T01:42:38.558Z,99177.41
2023-04-15T01:45:41.876Z,99170.84
2023-04-15T01:48:44.455Z,99178.44
2023-04-15T01:51:47.010Z,99162.44
2023-04-15T01:54:49.577Z,99188.50
2023-04-15T01:57:52.598Z,99192.69
2023-04-15T02:00:57.353Z,99187.25
2023-04-15T02:03:59.989Z,99187.03
2023-04-15T02:07:02.591Z,99196.28
2023-04-15T02:10:05.370Z,99174.88
2023-04-15T02:13:08.022Z,99178.28
2023-04-15T02:16:18.145Z,99185.91
2023-04-15T02:19:20.796Z,99175.75
2023-04-15T02:22:23.362Z,99189.25
2023-04-15T02:25:25.881Z,99175.06
2023-04-15T02:28:28.578Z,99169.59
2023-04-15T02:31:34.208Z,99178.31
2023-04-15T02:34:38.526Z,99184.47
2023-04-15T02:37:43.851Z,99164.84
2023-04-15T02:40:49.778Z,99180.97
2023-04-15T02:43:52.468Z,99176.50
2023-04-15T02:46:55.115Z,99184.09
2023-04-15T02:49:58.772Z,99164.69
2023-04-15T02:53:02.707Z,99177.38
2023-04-15T02:56:06.203Z,99179.97
2023-04-15T02:59:08.750Z,99181.34
2023-04-15T03:02:11.709Z,99181.28
2023-04-15T03:05:14.695Z,99172.84
2023-04-15T03:08:26.323Z,99184.09
2023-04-15T03:11:30.029Z,99163.50
2023-04-15T03:14:32.664Z,99165.78
2023-04-15T03:17:35.843Z,99168.28
2023-04-15T03:20:38.768Z,99166.91
2023-04-15T03:23:41.458Z,99167.63
2023-04-15T03:26:44.136Z,99153.41
2023-04-15T03:29:50.695Z,99158.47
2023-04-15T03:32:54.218Z,99153.03
2023-04-15T03:35:57.014Z,99150.91
2023-04-15T03:39:00.093Z,99164.25
2023-04-15T03:42:03.567Z,99160.81
2023-04-15T03:45:07.741Z,99171.75
2023-04-15T03:48:16.565Z,99174.66
2023-04-15T03:51:20.726Z,99164.09
2023-04-15T03:54:23.400Z,99181.84
2023-04-15T03:57:26.082Z,99170.28
2023-04-15T04:00:28.787Z,99169.56
2023-04-15T04:03:31.957Z,99176.66
2023-04-15T04:06:34.679Z,99168.59
2023-04-15T04:09:39.320Z,99169.97
2023-04-15T04:12:41.907Z,99181.13
2023-04-15T04:15:44.499Z,99173.78
2023-04-15T04:18:47.277Z,99179.50
2023-04-15T04:21:49.812Z,99181.34
2023-04-15T04:24:52.340Z,99189.84
2023-04-15T04:27:55.137Z,99192.25
2023-04-15T04:30:57.783Z,99185.81
2023-04-15T04:34:00.403Z,99193.47
2023-04-15T04:37:03.021Z,99184.03
2023-04-15T04:40:06.461Z,99201.28
2023-04-15T04:43:09.531Z,99198.50
2023-04-15T04:46:12.969Z,99202.09
2023-04-15T04:49:15.665Z,99197.03
2023-04-15T04:52:18.293Z,99206.94
2023-04-15T04:55:20.982Z,99199.59
2023-04-15T04:58:23.531Z,99208.69
2023-04-15T05:01:27.660Z,99199.72
2023-04-15T05:04:32.043Z,99188.59
2023-04-15T05:07:34.677Z,99197.84
2023-04-15T05:10:37.314Z,99203.94
2023-04-15T05:13:39.955Z,99206.09
2023-04-15T05:16:42.468Z,99203.06
2023-04-15T05:19:44.971Z,99182.88
2023-04-15T05:22:47.594Z,99205.41
2023-04-15T05:25:50.131Z,99203.34
2023-04-15T05:28:52.734Z,99206.91
2023-04-15T05:31:56.045Z,99207.81
2023-04-15T05:34:58.735Z,99213.81
2023-04-15T05:38:01.540Z,99203.38
2023-04-15T05:41:04.102Z,99189.16
2023-04-15T05:44:06.884Z,99213.13
2023-04-15T05:47:10.382Z,99199.31
2023-04-15T05:50:13.100Z,99218.66
2023-04-15T05:53:16.529Z,99215.44
2023-04-15T05:56:20.493Z,99215.56
2023-04-15T05:59:23.138Z,99207.53
2023-04-15T06:02:26.854Z,99227.22
2023-04-15T06:05:29.497Z,99224.09
2023-04-15T06:08:32.237Z,99228.50
2023-04-15T06:11:35.017Z,99227.84
2023-04-15T06:14:38.488Z,99231.66
2023-04-15T06:17:41.162Z,99227.28
2023-04-15T06:20:43.750Z,99242.03
2023-04-15T06:23:46.439Z,99228.22
2023-04-15T06:26:48.944Z,99240.31
2023-04-15T06:29:51.590Z,99238.69
2023-04-15T06:32:55.107Z,99242.00
2023-04-15T06:35:57.669Z,99223.13
2023-04-15T06:39:00.450Z,99241.41
2023-04-15T06:42:03.686Z,99247.66
2023-04-15T06:45:06.848Z,99247.88
2023-04-15T06:48:09.440Z,99253.97
2023-04-15T06:51:12.017Z,99251.94
2023-04-15T06:54:14.551Z,99257.19
2023-04-15T06:57:17.198Z,99253.06
2023-04-15T07:00:20.492Z,99253.66
2023-04-15T07:03:23.484Z,99264.47
2023-04-15T07:06:26.129Z,99272.38
2023-04-15T07:09:28.693Z,99266.19
2023-04-15T07:12:31.545Z,99265.63
2023-04-15T07:15:34.170Z,99266.78
2023-04-15T07:18:36.829Z,99274.69
2023-04-15T07:21:41.672Z,99277.78
2023-04-15T07:24:44.471Z,99278.94
2023-04-15T07:27:47.510Z,99279.19
2023-04-15T07:30:50.188Z,99291.19
2023-04-15T07:33:53.483Z,99291.03
2023-04-15T07:36:56.018Z,99293.72
2023-04-15T07:39:58.693Z,99301.06
2023-04-15T07:43:01.450Z,99295.66
2023-04-15T07:46:04.346Z,99306.97
2023-04-15T07:49:07.628Z,99308.09
2023-04-15T07:52:10.216Z,99286.56
2023-04-15T07:55:12.799Z,99299.66
2023-04-15T07:58:15.801Z,99304.25
2023-04-15T08:01:18.564Z,99301.38
2023-04-15T08:04:21.494Z,99301.47
2023-04-15T08:07:25.408Z,99306.91
2023-04-15T08:10:30.030Z,99301.81
2023-04-15T08:13:32.522Z,99311.28
2023-04-15T08:16:35.306Z,99319.94
2023-04-15T08:19:37.981Z,99318.03
2023-04-15T08:22:41.125Z,99310.09
2023-04-15T08:25:43.724Z,99312.66
2023-04-15T08:28:46.757Z,99320.88
2023-04-15T08:31:49.449Z,99319.84
2023-04-15T08:34:52.010Z,99326.69
2023-04-15T08:37:54.554Z,99325.78
2023-04-15T08:40:58.547Z,99320.00
2023-04-15T08:44:05.545Z,99332.31
2023-04-15T08:47:09.389Z,99332.47
2023-04-15T08:50:12.499Z,99328.53
2023-04-15T08:53:15.734Z,99339.69
2023-04-15T08:56:20.352Z,99344.53
2023-04-15T08:59:23.169Z,99351.72
2023-04-15T09:02:27.525Z,99350.78
2023-04-15T09:05:33.700Z,99348.38
2023-04-15T09:08:36.277Z,99347.88
2023-04-15T09:11:39.143Z,99352.63
2023-04-15T09:14:43.563Z,99345.56
2023-04-15T09:17:46.736Z,99356.38
2023-04-15T09:20:53.501Z,99336.41
2023-04-15T09:23:58.470Z,99356.06
2023-04-15T09:27:01.227Z,99362.19
2023-04-15T09:30:08.453Z,99361.38
2023-04-15T09:33:11.129Z,99359.66
2023-04-15T09:36:13.679Z,99359.59
2023-04-15T09:39:16.245Z,99356.47
2023-04-15T09:42:24.743Z,99359.34
2023-04-15T09:45:29.641Z,99357.69
2023-04-15T09:48:32.482Z,99355.31
2023-04-15T09:51:35.889Z,99360.16
2023-04-15T09:54:39.103Z,99365.06
2023-04-15T09:57:41.988Z,99351.94
2023-04-15T10:00:45.445Z,99357.69
2023-04-15T10:03:48.189Z,99356.53
2023-04-15T10:06:51.304Z,99369.31
2023-04-15T10:09:54.122Z,99365.94
2023-04-15T10:12:57.259Z,99374.91
2023-04-15T10:16:11.036Z,99372.25
2023-04-15T10:19:14.628Z,99367.50
2023-04-15T10:22:18.005Z,99369.47
2023-04-15T10:25:21.126Z,99384.94
2023-04-15T10:28:23.818Z,99377.63
2023-04-15T10:31:26.778Z,99362.47
2023-04-15T10:34:30.061Z,99356.94
2023-04-15T10:37:37.704Z,99378.94
2023-04-15T10:40:40.631Z,99384.81
2023-04-15T10:44:06.652Z,99378.13
2023-04-15T10:47:20.213Z,99379.72
2023-04-15T10:50:22.928Z,99376.88
2023-04-15T10:53:29.708Z,99374.41
2023-04-15T10:56:32.345Z,99363.81
2023-04-15T11:00:04.506Z,99370.91
2023-04-15T11:03:08.670Z,99368.22
2023-04-15T11:06:11.873Z,99364.72
2023-04-15T11:09:33.920Z,99361.81
2023-04-15T11:12:37.027Z,99371.94
2023-04-15T11:15:41.764Z,99370.22
2023-04-15T11:18:55.182Z,99366.16
2023-04-15T11:21:57.688Z,99369.69
2023-04-15T11:25:00.302Z,99369.78
2023-04-15T11:28:02.975Z,99368.28
2023-04-15T11:31:16.783Z,99357.97
2023-04-15T11:34:23.705Z,99368.34
2023-04-15T11:37:30.636Z,99372.81
2023-04-15T11:40:36.358Z,99367.41
2023-04-15T11:43:39.034Z,99367.59
2023-04-15T11:46:42.412Z,99371.69
2023-04-15T11:49:46.151Z,99367.63
2023-04-15T11:52:59.513Z,99375.75
2023-04-15T11:56:02.081Z,99377.16
2023-04-15T11:59:04.679Z,99375.22
2023-04-15T12:02:14.459Z,99375.31
2023-04-15T12:05:17.264Z,99373.56
2023-04-15T12:08:19.960Z,99382.34
2023-04-15T12:11:32.274Z,99377.72
2023-04-15T12:14:34.920Z,99383.34
2023-04-15T12:17:51.458Z,99378.94
2023-04-15T12:20:54.952Z,99374.41
2023-04-15T12:23:58.300Z,99372.59
2023-04-15T12:27:04.665Z,99375.44
2023-04-15T12:30:08.247Z,99375.94
2023-04-15T12:33:12.096Z,99379.53
2023-04-15T12:36:14.678Z,99378.16
2023-04-15T12:39:17.268Z,99368.13
2023-04-15T12:42:20.509Z,99384.06
2023-04-15T12:45:23.097Z,99383.69
2023-04-15T12:48:25.708Z,99393.16
2023-04-15T12:51:28.441Z,99387.94
2023-04-15T12:54:32.072Z,99387.03
2023-04-15T12:57:34.614Z,99385.81
2023-04-15T13:00:37.572Z,99396.72
2023-04-15T13:03:40.475Z,99393.47
2023-04-15T13:06:43.913Z,99408.59
2023-04-15T13:09:46.725Z,99405.09
2023-04-15T13:12:53.900Z,99394.94
2023-04-15T13:15:56.609Z,99398.53
2023-04-15T13:19:00.504Z,99408.31
2023-04-15T13:22:03.216Z,99412.59
2023-04-15T13:25:06.512Z,99416.13
2023-04-15T13:28:11.433Z,99411.88
2023-04-15T13:31:14.170Z,99418.06
2023-04-15T13:34:16.817Z,99430.94
2023-04-15T13:37:19.429Z,99444.31
2023-04-15T13:40:22.732Z,99444.63
2023-04-15T13:43:25.381Z,99470.97
2023-04-15T13:46:28.095Z,99481.75
2023-04-15T13:49:30.879Z,99484.38
2023-04-15T13:52:33.590Z,99496.47
2023-04-15T13:55:36.533Z,99498.84
2023-04-15T13:58:41.128Z,99496.13
2023-04-15T14:01:45.123Z,99498.88
2023-04-15T14:04:47.865Z,99487.16
2023-04-15T14:07:50.730Z,99484.63
2023-04-15T14:10:53.361Z,99498.00
2023-04-15T14:13:55.963Z,99502.63
2023-04-15T14:16:58.860Z,99489.56
2023-04-15T14:20:01.666Z,99494.97
2023-04-15T14:23:04.164Z,99490.09
2023-04-15T14:26:06.973Z,99481.84
2023-04-15T14:29:09.819Z,99491.06
2023-04-15T14:32:12.890Z,99495.78
2023-04-15T14:35:15.609Z,99489.34
2023-04-15T14:38:18.294Z,99497.28
2023-04-15T14:41:20.829Z,99498.13
2023-04-15T14:44:24.198Z,99500.88
2023-04-15T14:47:26.971Z,99500.38
2023-04-15T14:50:29.722Z,99502.16
2023-04-15T14:53:32.256Z,99503.78
2023-04-15T14:56:34.975Z,99481.53
2023-04-15T14:59:37.545Z,99493.97
2023-04-15T15:02:40.765Z,99489.50
2023-04-15T15:05:45.566Z,99474.97
2023-04-15T15:08:49.429Z,99494.50
2023-04-15T15:11:52.120Z,99506.13
2023-04-15T15:14:56.314Z,99500.63
2023-04-15T15:17:59.259Z,99513.19
2023-04-15T15:21:02.084Z,99522.59
2023-04-15T15:24:04.998Z,99514.88
2023-04-15T15:27:07.733Z,99535.94
2023-04-15T15:30:11.263Z,99535.78
2023-04-15T15:33:13.831Z,99531.59
2023-04-15T15:36:16.488Z,99534.19
2023-04-15T15:39:19.137Z,99541.41
2023-04-15T15:42:22.368Z,99546.34
2023-04-15T15:45:25.114Z,99534.34
2023-04-15T15:48:27.856Z,99550.56
2023-04-15T15:51:30.999Z,99551.41
2023-04-15T15:54:33.711Z,99544.78
2023-04-15T15:57:36.780Z,99565.16
2023-04-15T16:00:39.414Z,99549.56
2023-04-15T16:03:42.165Z,99561.97
2023-04-15T16:06:46.674Z,99565.09
2023-04-15T16:09:49.312Z,99568.19
2023-04-15T16:12:51.853Z,99578.94
2023-04-15T16:15:54.540Z,99577.50
2023-04-15T16:19:00.391Z,99580.97
2023-04-15T16:22:03.147Z,99575.94
2023-04-15T16:25:06.249Z,99574.56
2023-04-15T16:28:18.962Z,99580.13
2023-04-15T16:31:28.401Z,99582.31
2023-04-15T16:34:31.123Z,99580.81
2023-04-15T16:37:36.411Z,99591.09
2023-04-15T16:40:39.177Z,99596.84
2023-04-15T16:43:41.929Z,99595.69
2023-04-15T16:46:44.533Z,99593.38
2023-04-15T16:49:47.804Z,99597.50
2023-04-15T16:52:50.454Z,99592.91
2023-04-15T16:55:52.964Z,99604.13
2023-04-15T16:58:55.654Z,99594.97
2023-04-15T17:01:58.765Z,99610.44
2023-04-15T17:05:01.469Z,99611.69
2023-04-15T17:08:05.211Z,99592.63
2023-04-15T17:11:07.762Z,99614.97
2023-04-15T17:14:10.546Z,99612.19
2023-04-15T17:17:13.130Z,99596.81
2023-04-15T17:20:17.548Z,99603.81
2023-04-15T17:23:20.350Z,99615.84
2023-04-15T17:26:22.931Z,99607.25
2023-04-15T17:29:25.594Z,99602.97
2023-04-15T17:32:34.687Z,99616.22
2023-04-15T17:35:37.485Z,99630.50
2023-04-15T17:38:40.110Z,99627.94
2023-04-15T17:41:43.480Z,99639.59
2023-04-15T17:44:46.315Z,99625.34
2023-04-15T17:47:48.968Z,99630.94
2023-04-15T17:50:52.097Z,99628.41
2023-04-15T17:53:54.869Z,99633.06
2023-04-15T17:56:58.077Z,99653.94
2023-04-15T18:00:02.038Z,99638.97
2023-04-15T18:03:15.539Z,99655.47
2023-04-15T18:06:21.387Z,99670.34
2023-04-15T18:09:23.948Z,99679.75
2023-04-15T18:12:27.138Z,99681.13
2023-04-15T18:15:33.605Z,99694.78
2023-04-15T18:18:36.168Z,99682.28
2023-04-15T18:21:38.919Z,99705.97
2023-04-15T18:24:41.967Z,99704.25
2023-04-15T18:27:44.854Z,99727.44
2023-04-15T18:30:47.576Z,99727.13
2023-04-15T18:33:50.341Z,99740.13
2023-04-15T18:36:52.955Z,99723.31
2023-04-15T18:39:56.142Z,99743.66
2023-04-15T18:42:58.886Z,99755.00
2023-04-15T18:46:02.164Z,99754.28
2023-04-15T18:49:05.284Z,99763.34
2023-04-15T18:52:09.559Z,99750.25
2023-04-15T18:55:12.278Z,99763.72
2023-04-15T18:58:15.197Z,99767.59
2023-04-15T19:01:18.017Z,99768.88
2023-04-15T19:04:21.023Z,99782.75
2023-04-15T19:07:24.100Z,99787.00
2023-04-15T19:10:28.211Z,99769.75
2023-04-15T19:13:30.778Z,99795.00
2023-04-15T19:16:33.489Z,99804.25
2023-04-15T19:19:37.283Z,99802.66
2023-04-15T19:22:40.021Z,99817.88
2023-04-15T19:25:43.285Z,99817.44
2023-04-15T19:28:46.031Z,99818.22
2023-04-15T19:31:48.957Z,99813.16
2023-04-15T19:34:51.746Z,99823.78
2023-04-15T19:37:54.583Z,99833.19
2023-04-15T19:40:59.095Z,99831.81
2023-04-15T19:44:03.178Z,99821.69
2023-04-15T19:47:05.962Z,99829.84
2023-04-15T19:50:10.095Z,99829.94
2023-04-15T19:53:12.771Z,99827.66
2023-04-15T19:56:16.055Z,99828.94
2023-04-15T19:59:18.828Z,99826.69
2023-04-15T20:02:22.450Z,99827.63
2023-04-15T20:05:25.530Z,99816.91
2023-04-15T20:08:28.086Z,99829.97
2023-04-15T20:12:48.262Z,99831.63
2023-04-15T20:14:56.957Z,99833.63
2023-04-15T20:17:59.883Z,99841.38
2023-04-15T20:21:02.728Z,99845.84
2023-04-15T20:24:06.189Z,99836.50
2023-04-15T20:27:09.181Z,99842.00
2023-04-15T20:30:12.118Z,99849.13
2023-04-15T20:33:15.039Z,99853.00
2023-04-15T20:36:17.724Z,99850.50
2023-04-15T20:39:20.803Z,99853.38
2023-04-15T20:42:24.674Z,99865.34
2023-04-15T20:45:27.479Z,99857.63
2023-04-15T20:48:30.533Z,99859.25
2023-04-15T20:51:37.759Z,99844.63
2023-04-15T20:54:40.491Z,99860.06
2023-04-15T20:57:43.331Z,99860.47
2023-04-15T21:00:46.353Z,99853.78
2023-04-15T21:03:49.007Z,99856.22
2023-04-15T21:06:52.422Z,99854.56
2023-04-15T21:09:56.211Z,99848.47
2023-04-15T21:12:58.756Z,99856.41
2023-04-15T21:16:01.507Z,99868.81
2023-04-15T21:19:04.352Z,99861.72
2023-04-15T21:22:07.255Z,99844.66
2023-04-15T21:25:10.139Z,99867.78
2023-04-15T21:28:12.759Z,99871.66
2023-04-15T21:31:15.692Z,99876.53
2023-04-15T21:34:18.176Z,99869.41
2023-04-15T21:37:20.905Z,99874.94
2023-04-15T21:40:23.462Z,99863.16
2023-04-15T21:43:26.117Z,99871.88
2023-04-15T21:46:32.833Z,99848.13
2023-04-15T21:49:37.742Z,99866.41
2023-04-15T21:52:40.380Z,99844.88
2023-04-15T21:55:42.937Z,99846.06
2023-04-15T21:58:45.497Z,99835.09
2023-04-15T22:01:48.280Z,99858.03
2023-04-15T22:04:50.990Z,99863.13
2023-04-15T22:07:53.620Z,99869.66
2023-04-15T22:10:56.336Z,99861.34
2023-04-15T22:13:59.399Z,99866.41
2023-04-15T22:17:02.011Z,99862.13
2023-04-15T22:20:04.949Z,99865.38
2023-04-15T22:23:10.470Z,99885.28
2023-04-15T22:26:13.158Z,99891.38
2023-04-15T22:29:15.756Z,99878.56
2023-04-15T22:32:18.405Z,99890.16
2023-04-15T22:35:21.038Z,99899.28
2023-04-15T22:38:24.536Z,99910.81
2023-04-15T22:41:27.389Z,99891.31
2023-04-15T22:44:29.999Z,99915.88
2023-04-15T22:47:32.583Z,99907.97
2023-04-15T22:50:37.741Z,99920.94
2023-04-15T22:53:40.388Z,99925.34
2023-04-15T22:56:42.972Z,99927.13
2023-04-15T22:59:45.698Z,99929.56
2023-04-15T23:02:48.372Z,99935.06
2023-04-15T23:05:52.258Z,99937.31
2023-04-15T23:08:54.848Z,99924.50
2023-04-15T23:11:57.556Z,99927.16
2023-04-15T23:15:00.154Z,99912.56
2023-04-15T23:18:02.743Z,99922.78
2023-04-15T23:21:05.486Z,99926.25
2023-04-15T23:24:08.086Z,99911.84
2023-04-15T23:27:10.712Z,99934.81
2023-04-15T23:30:13.426Z,99919.78
2023-04-15T23:33:16.073Z,99937.84
2023-04-15T23:36:18.835Z,99942.09
2023-04-15T23:39:21.612Z,99925.88
2023-04-15T23:42:24.845Z,99921.19
2023-04-15T23:45:27.494Z,99934.41
2023-04-15T23:48:30.319Z,99937.44
2023-04-15T23:51:32.886Z,99953.50
2023-04-15T23:54:35.519Z,99946.00
2023-04-15T23:57:38.048Z,99940.28
